Time;durP1;ratioP1;P1;durP2;ratioP2;P2;SDS_P1;SDS_P2;PMS_P1;PMS_P2;Temp;Humidity;BMP_temperature;BMP_pressure;BME280_temperature;BME280_humidity;BME280_pressure;Samples;Min_cycle;Max_cycle;Signal;HPM_P1;HPM_P2
2021/10/06 05:11:45;;;;;;;2.83;0.88;;;10.70;94.90;;;;;;4878385;29;20057;-86
2021/10/06 05:14:10;;;;;;;2.85;0.70;;;10.70;94.90;;;;;;4872647;29;20021;-84
2021/10/06 05:16:36;;;;;;;2.78;0.77;;;10.70;95.20;;;;;;4881932;29;20037;-86
2021/10/06 05:19:02;;;;;;;2.80;0.77;;;10.70;95.00;;;;;;4884440;29;20025;-86
2021/10/06 05:21:28;;;;;;;1.98;0.57;;;10.70;95.00;;;;;;4883540;29;20029;-86
2021/10/06 05:23:54;;;;;;;2.10;0.80;;;10.70;95.00;;;;;;4883559;29;20029;-86
2021/10/06 05:26:19;;;;;;;4.28;0.90;;;10.60;95.00;;;;;;4881536;29;20359;-86
2021/10/06 05:28:45;;;;;;;1.90;1.10;;;10.70;95.10;;;;;;4883640;29;20040;-86
2021/10/06 05:31:11;;;;;;;1.90;0.75;;;10.60;95.10;;;;;;4881806;29;20747;-87
2021/10/06 05:33:36;;;;;;;3.03;0.85;;;10.70;95.20;;;;;;4882613;29;20032;-85
2021/10/06 05:36:03;;;;;;;3.95;1.27;;;10.70;95.20;;;;;;4882903;29;20040;-84
2021/10/06 05:38:29;;;;;;;17.88;9.57;;;10.70;95.20;;;;;;4879774;29;20040;-86
2021/10/06 05:40:55;;;;;;;3.38;1.48;;;10.70;95.20;;;;;;4895570;29;20029;-86
2021/10/06 05:43:20;;;;;;;2.35;1.38;;;10.70;95.20;;;;;;4883218;29;20143;-86
2021/10/06 05:45:46;;;;;;;3.17;1.10;;;10.70;95.30;;;;;;4901693;29;20059;-88
2021/10/06 05:48:13;;;;;;;6.10;1.05;;;10.70;95.30;;;;;;4886169;29;20032;-87
2021/10/06 05:50:39;;;;;;;4.68;2.95;;;10.70;95.30;;;;;;4887929;29;20032;-85
2021/10/06 05:53:05;;;;;;;6.78;1.80;;;10.70;95.20;;;;;;4898082;29;20441;-87
2021/10/06 05:55:31;;;;;;;1.40;0.90;;;10.70;95.30;;;;;;4885821;29;20029;-86
2021/10/06 05:57:58;;;;;;;4.78;1.17;;;10.70;95.20;;;;;;4887413;29;20040;-87
2021/10/06 06:00:23;;;;;;;4.07;0.93;;;10.70;95.20;;;;;;4886404;29;20090;-87
2021/10/06 06:02:49;;;;;;;3.30;1.17;;;10.70;95.20;;;;;;4878090;29;20030;-86
2021/10/06 06:05:16;;;;;;;6.47;1.02;;;10.70;95.30;;;;;;4879071;29;20097;-86
2021/10/06 06:07:43;;;;;;;6.05;2.10;;;10.70;95.60;;;;;;4898229;29;20068;-87
2021/10/06 06:10:10;;;;;;;3.97;1.05;;;10.70;95.40;;;;;;4881974;29;20093;-85
2021/10/06 06:12:35;;;;;;;2.65;1.00;;;10.70;95.30;;;;;;4871548;29;20040;-85
2021/10/06 06:15:02;;;;;;;2.40;1.10;;;10.70;95.40;;;;;;4887448;29;20049;-86
2021/10/06 06:17:28;;;;;;;4.63;1.40;;;10.80;95.50;;;;;;4883576;29;20041;-85
2021/10/06 06:19:54;;;;;;;1.85;1.02;;;10.70;95.40;;;;;;4901081;29;20525;-85
2021/10/06 06:22:19;;;;;;;3.38;1.17;;;10.70;95.30;;;;;;4890841;29;20065;-85
2021/10/06 06:24:45;;;;;;;2.00;1.10;;;10.70;95.40;;;;;;4885024;29;20029;-86
2021/10/06 06:27:11;;;;;;;4.60;1.02;;;10.60;95.30;;;;;;4884456;29;20115;-85
2021/10/06 06:29:37;;;;;;;2.92;1.02;;;10.60;95.40;;;;;;4883275;29;20045;-84
2021/10/06 06:32:03;;;;;;;3.83;1.30;;;10.60;95.40;;;;;;4881753;29;20459;-86
2021/10/06 06:34:29;;;;;;;3.53;1.10;;;10.60;95.50;;;;;;4886811;29;20053;-86
2021/10/06 06:36:54;;;;;;;8.13;1.42;;;10.60;95.50;;;;;;4888565;29;20041;-85
2021/10/06 06:39:20;;;;;;;5.28;1.30;;;10.60;95.50;;;;;;4880493;29;20029;-86
2021/10/06 06:41:46;;;;;;;4.00;1.10;;;10.50;95.50;;;;;;4878501;29;20021;-84
2021/10/06 06:44:11;;;;;;;3.53;1.48;;;10.50;95.50;;;;;;4874423;29;20025;-87
2021/10/06 06:46:37;;;;;;;4.63;1.42;;;10.50;95.60;;;;;;4876771;29;20105;-86
2021/10/06 06:49:04;;;;;;;3.20;1.30;;;10.60;95.60;;;;;;4862428;29;20113;-88
2021/10/06 06:51:30;;;;;;;3.63;1.17;;;10.50;95.60;;;;;;4878400;29;20510;-85
2021/10/06 06:53:56;;;;;;;5.07;1.52;;;10.50;95.60;;;;;;4883061;29;20052;-86
2021/10/06 06:56:22;;;;;;;5.10;1.50;;;10.50;95.60;;;;;;4881269;29;20040;-85
2021/10/06 06:58:49;;;;;;;2.53;1.00;;;10.50;95.70;;;;;;4875646;29;20101;-84
2021/10/06 07:01:18;;;;;;;3.72;1.00;;;10.40;95.60;;;;;;4880285;29;20029;-86
2021/10/06 07:03:44;;;;;;;1.00;0.90;;;10.50;95.70;;;;;;4882392;29;20131;-86
2021/10/06 07:06:10;;;;;;;4.13;1.10;;;10.40;95.70;;;;;;4883391;29;20037;-85
2021/10/06 07:08:35;;;;;;;2.75;0.90;;;10.40;95.70;;;;;;4883896;29;20037;-86
2021/10/06 07:11:01;;;;;;;4.03;0.90;;;10.60;95.70;;;;;;4882440;29;20037;-85
2021/10/06 07:13:27;;;;;;;1.67;0.80;;;10.50;95.60;;;;;;4882443;29;20054;-87
2021/10/06 07:15:53;;;;;;;0.75;0.70;;;10.60;95.80;;;;;;4881320;29;20041;-86
2021/10/06 07:18:18;;;;;;;1.90;1.13;;;11.00;95.50;;;;;;4886714;29;20040;-85
2021/10/06 07:20:44;;;;;;;3.25;1.35;;;11.70;95.00;;;;;;4882119;29;20025;-85
2021/10/06 07:23:09;;;;;;;1.38;0.60;;;12.40;94.30;;;;;;4884552;29;20033;-87
2021/10/06 07:25:36;;;;;;;0.75;0.60;;;12.80;94.00;;;;;;4880040;29;20029;-85
2021/10/06 07:28:02;;;;;;;3.08;1.10;;;12.40;94.20;;;;;;4866889;29;20037;-85
2021/10/06 07:30:27;;;;;;;2.00;0.70;;;12.70;94.20;;;;;;4879853;29;20564;-85
2021/10/06 07:32:53;;;;;;;6.47;1.20;;;12.70;93.90;;;;;;4875758;29;20318;-85
2021/10/06 07:35:18;;;;;;;1.70;1.10;;;12.90;93.80;;;;;;4868061;29;20038;-87
2021/10/06 07:37:44;;;;;;;1.35;0.95;;;13.50;93.40;;;;;;4865923;29;20040;-85
2021/10/06 07:40:10;;;;;;;3.10;1.10;;;14.00;92.80;;;;;;4879116;29;20120;-86
2021/10/06 07:42:36;;;;;;;2.90;0.95;;;14.40;92.70;;;;;;4880495;29;20060;-85
2021/10/06 07:45:02;;;;;;;1.17;0.68;;;14.60;92.50;;;;;;4885048;29;20490;-86
2021/10/06 07:47:28;;;;;;;1.92;0.80;;;14.40;92.60;;;;;;4880518;29;20029;-85
2021/10/06 07:49:53;;;;;;;1.02;0.55;;;14.10;92.60;;;;;;4868463;29;20043;-85
2021/10/06 07:52:19;;;;;;;2.50;0.60;;;13.60;92.90;;;;;;4871986;29;20028;-86
2021/10/06 07:54:45;;;;;;;1.65;0.60;;;13.20;93.20;;;;;;4877646;29;20043;-85
2021/10/06 07:57:10;;;;;;;1.45;0.75;;;13.00;93.50;;;;;;4884373;29;20058;-86
2021/10/06 07:59:36;;;;;;;1.85;0.85;;;12.80;93.80;;;;;;4879388;29;20627;-86
2021/10/06 08:02:03;;;;;;;4.07;0.80;;;12.70;93.90;;;;;;4873018;29;20025;-86
2021/10/06 08:04:29;;;;;;;3.42;0.90;;;12.50;94.00;;;;;;4878456;29;20037;-86
2021/10/06 08:06:54;;;;;;;4.53;0.82;;;12.30;94.00;;;;;;4881083;29;20119;-86
2021/10/06 08:09:20;;;;;;;4.40;0.85;;;12.20;94.20;;;;;;4885381;29;20367;-85
2021/10/06 08:11:46;;;;;;;6.47;0.90;;;12.10;94.30;;;;;;4874811;29;20033;-84
2021/10/06 08:14:12;;;;;;;2.35;0.63;;;12.10;94.30;;;;;;4886477;29;20543;-86
2021/10/06 08:16:38;;;;;;;4.22;0.70;;;12.00;94.30;;;;;;4886746;29;20036;-84
2021/10/06 08:19:04;;;;;;;2.55;0.90;;;11.90;94.30;;;;;;4885803;29;20084;-86
2021/10/06 08:21:30;;;;;;;3.50;0.95;;;11.80;94.30;;;;;;4900369;29;20029;-86
2021/10/06 08:23:56;;;;;;;4.00;0.80;;;11.70;94.30;;;;;;4875937;29;20045;-87
2021/10/06 08:26:22;;;;;;;3.53;1.55;;;11.70;94.50;;;;;;4868737;29;20035;-87
2021/10/06 08:28:48;;;;;;;2.30;0.80;;;11.70;94.50;;;;;;4883052;29;20430;-85
2021/10/06 08:31:13;;;;;;;4.03;1.00;;;11.90;94.50;;;;;;4879093;29;20071;-85
2021/10/06 08:33:39;;;;;;;1.67;0.60;;;12.00;94.40;;;;;;4881452;29;20387;-86
2021/10/06 08:36:05;;;;;;;2.20;0.77;;;12.20;94.50;;;;;;4873220;29;20040;-86
2021/10/06 08:38:30;;;;;;;0.95;0.60;;;12.40;94.40;;;;;;4876977;29;20041;-86
2021/10/06 08:40:58;;;;;;;3.80;0.80;;;12.60;94.50;;;;;;4878728;29;20063;-85
2021/10/06 08:43:23;;;;;;;2.58;0.65;;;12.70;94.20;;;;;;4881865;29;20132;-86
2021/10/06 08:45:49;;;;;;;1.50;0.85;;;12.80;94.00;;;;;;4876736;29;20487;-87
2021/10/06 08:48:15;;;;;;;2.67;0.70;;;12.90;94.00;;;;;;4879265;29;20523;-86
2021/10/06 08:50:41;;;;;;;3.85;1.13;;;12.90;93.90;;;;;;4879063;29;20089;-86
2021/10/06 08:53:07;;;;;;;1.30;0.65;;;13.00;93.60;;;;;;4881181;29;20033;-87
2021/10/06 08:55:34;;;;;;;1.30;0.90;;;13.00;93.60;;;;;;4881130;29;20196;-85
2021/10/06 08:58:03;;;;;;;2.72;0.70;;;13.00;93.60;;;;;;4877173;29;20482;-86
2021/10/06 09:00:29;;;;;;;3.60;0.70;;;13.00;93.40;;;;;;4883938;29;20056;-85
2021/10/06 09:02:56;;;;;;;1.88;0.68;;;13.00;93.40;;;;;;4895901;29;20025;-85
2021/10/06 09:05:23;;;;;;;2.83;0.70;;;12.90;93.40;;;;;;4885659;29;20040;-86
2021/10/06 09:08:01;;;;;;;3.45;0.60;;;12.80;93.40;;;;;;4885555;29;20980;-86
2021/10/06 09:10:30;;;;;;;2.08;0.60;;;12.70;93.30;;;;;;4886520;29;20096;-85
2021/10/06 09:13:03;;;;;;;4.25;0.82;;;12.70;93.40;;;;;;4886936;29;20065;-85
2021/10/06 09:15:41;;;;;;;2.38;0.73;;;12.60;93.30;;;;;;4885530;29;20060;-87
2021/10/06 09:18:15;;;;;;;2.00;0.70;;;12.40;93.20;;;;;;4887472;29;20065;-86
2021/10/06 09:20:41;;;;;;;3.15;0.70;;;12.30;93.30;;;;;;4871734;29;20108;-85
2021/10/06 09:23:13;;;;;;;3.10;0.73;;;12.20;93.30;;;;;;4884885;29;20053;-86
2021/10/06 09:25:54;;;;;;;3.88;0.85;;;12.10;93.30;;;;;;4885530;29;20067;-86
2021/10/06 09:28:24;;;;;;;3.22;0.85;;;12.10;93.50;;;;;;4885488;29;20033;-83
2021/10/06 09:30:58;;;;;;;2.97;0.93;;;12.00;93.50;;;;;;4900665;29;20105;-83
2021/10/06 09:33:25;;;;;;;2.95;0.70;;;12.00;93.50;;;;;;4900612;29;20093;-86
2021/10/06 09:36:16;;;;;;;2.55;0.88;;;12.00;93.60;;;;;;4881313;29;20060;-88
2021/10/06 09:38:56;;;;;;;2.10;0.73;;;12.10;93.80;;;;;;4874238;29;20481;-86
2021/10/06 09:41:47;;;;;;;2.70;0.70;;;12.10;93.60;;;;;;4901503;29;20040;-85
2021/10/06 09:44:20;;;;;;;2.22;0.60;;;12.10;93.50;;;;;;4884670;29;20029;-86
2021/10/06 09:46:57;;;;;;;2.17;0.90;;;12.00;93.50;;;;;;4886875;29;20036;-86
2021/10/06 09:49:30;;;;;;;4.22;0.90;;;12.00;93.50;;;;;;4884498;29;20128;-86
2021/10/06 09:52:14;;;;;;;1.27;1.17;;;12.00;93.50;;;;;;4885845;29;20060;-86
2021/10/06 09:55:07;;;;;;;3.83;0.80;;;11.90;93.60;;;;;;4875924;29;20057;-86
2021/10/06 09:57:38;;;;;;;3.28;0.75;;;11.80;93.50;;;;;;4890061;29;20101;-85
2021/10/06 10:00:07;;;;;;;4.55;1.00;;;11.80;93.50;;;;;;4899361;29;20037;-86
2021/10/06 10:02:34;;;;;;;2.90;0.68;;;11.70;93.50;;;;;;4885148;29;20029;-86
2021/10/06 10:05:00;;;;;;;1.80;0.60;;;11.70;93.50;;;;;;4886052;29;20025;-86
2021/10/06 10:07:27;;;;;;;1.70;0.80;;;11.60;93.40;;;;;;4881991;29;20030;-86
2021/10/06 10:09:53;;;;;;;3.30;0.77;;;11.60;93.40;;;;;;4870079;29;20029;-86
2021/10/06 10:12:20;;;;;;;1.98;0.75;;;11.50;93.40;;;;;;4876604;29;20037;-86
2021/10/06 10:14:48;;;;;;;3.53;0.65;;;11.30;93.40;;;;;;4887294;29;20033;-86
2021/10/06 10:17:14;;;;;;;1.27;0.70;;;11.30;93.40;;;;;;4888322;29;20062;-85
2021/10/06 10:19:40;;;;;;;2.13;0.73;;;11.30;93.60;;;;;;4887289;29;20510;-86
2021/10/06 10:22:06;;;;;;;1.80;0.73;;;11.20;93.60;;;;;;4888088;29;20056;-85
2021/10/06 10:24:45;;;;;;;1.35;0.80;;;11.20;93.70;;;;;;4887489;29;20116;-87
2021/10/06 10:27:12;;;;;;;2.08;0.82;;;11.20;93.80;;;;;;4887643;29;20021;-86
2021/10/06 10:29:47;;;;;;;1.75;0.77;;;11.20;93.80;;;;;;4888732;29;20107;-85
2021/10/06 10:32:15;;;;;;;3.17;1.00;;;11.30;93.80;;;;;;4889132;29;20124;-84
2021/10/06 10:35:07;;;;;;;3.45;0.70;;;11.30;93.80;;;;;;4889133;29;20053;-86
2021/10/06 10:37:51;;;;;;;2.05;0.88;;;11.40;94.00;;;;;;4884886;29;20052;-85
2021/10/06 10:40:35;;;;;;;2.88;0.98;;;11.50;94.10;;;;;;4900910;29;20060;-83
2021/10/06 10:43:07;;;;;;;1.83;0.85;;;11.60;94.20;;;;;;4894877;29;20033;-85
2021/10/06 10:45:38;;;;;;;5.13;0.97;;;11.80;94.20;;;;;;4908689;29;20021;-85
2021/10/06 10:48:09;;;;;;;2.88;0.80;;;11.90;94.20;;;;;;4896416;29;20036;-85
2021/10/06 10:50:44;;;;;;;2.35;0.85;;;12.10;94.20;;;;;;4900438;29;20029;-86
2021/10/06 10:53:14;;;;;;;4.22;0.77;;;12.20;94.20;;;;;;4873020;29;20037;-86
2021/10/06 10:55:56;;;;;;;3.72;0.90;;;12.40;94.00;;;;;;4866232;29;20029;-85
2021/10/06 10:58:33;;;;;;;3.30;0.60;;;12.40;93.80;;;;;;4882467;29;20040;-85
2021/10/06 11:01:14;;;;;;;3.78;0.77;;;12.50;93.70;;;;;;4889180;29;20048;-85
2021/10/06 11:04:08;;;;;;;2.58;0.70;;;12.60;93.50;;;;;;4899554;29;20029;-84
2021/10/06 11:06:34;;;;;;;1.42;0.55;;;12.70;93.40;;;;;;4900126;29;20040;-85
2021/10/06 11:09:29;;;;;;;2.67;0.60;;;12.70;93.30;;;;;;5337744;23;20048;-91
2021/10/06 11:12:18;;;;;;;2.45;0.70;;;12.80;93.10;;;;;;4866880;29;20122;-91
2021/10/06 11:15:05;;;;;;;4.40;0.60;;;12.80;93.00;;;;;;4838959;29;20049;-92
2021/10/06 11:17:31;;;;;;;6.57;1.50;;;12.90;93.00;;;;;;4861173;29;20021;-91
2021/10/06 11:20:32;;;;;;;3.35;1.00;;;13.00;93.10;;;;;;4857213;29;20033;-91
2021/10/06 11:28:11;;;;;;;4.68;0.70;;;13.10;92.60;;;;;;4913860;23;20312;-90
2021/10/06 11:30:37;;;;;;;29.08;18.65;;;13.10;92.40;;;;;;4896439;29;20025;-91
2021/10/06 11:33:03;;;;;;;1.15;0.90;;;13.20;92.50;;;;;;4917853;29;20135;-91
2021/10/06 11:35:33;;;;;;;2.42;0.70;;;13.30;92.30;;;;;;4902247;29;20043;-91
2021/10/06 11:38:09;;;;;;;4.25;0.75;;;13.30;92.20;;;;;;4901808;29;20036;-90
2021/10/06 11:40:37;;;;;;;2.85;0.70;;;13.30;92.00;;;;;;4900342;29;20049;-90
2021/10/06 11:43:03;;;;;;;1.83;0.82;;;13.40;92.10;;;;;;4905791;29;20298;-90
2021/10/06 11:45:31;;;;;;;1.90;0.75;;;13.40;91.90;;;;;;4912335;29;20032;-90
2021/10/06 11:48:01;;;;;;;2.65;0.60;;;13.50;91.90;;;;;;4904560;29;20117;-91
2021/10/06 11:50:34;;;;;;;4.38;0.60;;;13.50;91.70;;;;;;4897844;29;20036;-90
2021/10/06 11:53:00;;;;;;;4.70;0.75;;;13.50;91.40;;;;;;4895427;29;20075;-90
2021/10/06 11:55:25;;;;;;;1.40;0.50;;;13.50;91.50;;;;;;4880613;29;20616;-90
2021/10/06 11:57:51;;;;;;;1.45;0.50;;;13.50;91.40;;;;;;4877036;29;20017;-90
2021/10/06 12:00:17;;;;;;;2.03;0.45;;;13.50;91.30;;;;;;4889652;29;20040;-90
2021/10/06 12:02:44;;;;;;;1.45;0.50;;;13.40;91.10;;;;;;4888215;29;21877;-90
2021/10/06 12:05:09;;;;;;;2.55;0.75;;;13.40;91.00;;;;;;4885822;29;20055;-90
2021/10/06 12:07:36;;;;;;;3.25;0.73;;;13.40;90.80;;;;;;4896308;29;20060;-90
2021/10/06 12:10:11;;;;;;;2.95;0.50;;;13.40;90.70;;;;;;4897071;29;20581;-90
2021/10/06 12:12:39;;;;;;;0.95;0.63;;;13.40;90.60;;;;;;4891443;29;20128;-90
2021/10/06 12:15:09;;;;;;;0.80;0.40;;;13.50;90.70;;;;;;4887067;29;20123;-90
2021/10/06 12:17:45;;;;;;;3.92;0.50;;;13.50;90.70;;;;;;4896290;29;20059;-89
2021/10/06 12:20:17;;;;;;;2.00;0.60;;;13.70;90.80;;;;;;4890786;29;20091;-90
2021/10/06 12:22:44;;;;;;;3.25;0.52;;;13.80;90.80;;;;;;4894824;29;20120;-90
2021/10/06 12:25:19;;;;;;;2.38;0.50;;;13.80;90.40;;;;;;4880892;29;20100;-90
2021/10/06 12:28:06;;;;;;;2.80;0.32;;;13.90;90.10;;;;;;4891854;29;20397;-90
2021/10/06 12:30:35;;;;;;;1.48;0.70;;;14.00;90.10;;;;;;4886656;29;20057;-90
2021/10/06 12:33:11;;;;;;;2.95;0.50;;;14.00;89.90;;;;;;4895044;29;20043;-91
2021/10/06 12:35:48;;;;;;;1.70;0.57;;;14.00;89.20;;;;;;4896012;29;20409;-91
2021/10/06 12:38:15;;;;;;;3.47;0.60;;;14.20;89.30;;;;;;4896604;29;20729;-90
2021/10/06 12:40:43;;;;;;;2.47;0.50;;;14.30;89.10;;;;;;4899567;29;20040;-90
2021/10/06 12:43:15;;;;;;;3.20;0.70;;;14.20;88.60;;;;;;4898390;29;20397;-89
2021/10/06 12:46:23;;;;;;;2.00;0.50;;;14.20;88.10;;;;;;4887537;29;20039;-90
2021/10/06 12:48:55;;;;;;;1.25;0.57;;;14.10;88.40;;;;;;4808298;29;20038;-91
2021/10/06 12:51:24;;;;;;;2.45;0.60;;;14.10;88.30;;;;;;4871374;29;20045;-90
2021/10/06 12:54:00;;;;;;;2.17;0.70;;;14.10;88.30;;;;;;4886169;29;20531;-91
2021/10/06 12:56:30;;;;;;;3.28;0.60;;;14.00;87.80;;;;;;4887411;29;20073;-90
2021/10/06 12:59:01;;;;;;;1.45;0.50;;;14.00;87.60;;;;;;4888146;29;20104;-91
2021/10/06 13:01:28;;;;;;;3.07;0.47;;;13.90;87.70;;;;;;4891110;29;20029;-90
2021/10/06 13:03:53;;;;;;;3.17;0.82;;;14.10;88.10;;;;;;4897475;29;20157;-90
2021/10/06 13:06:20;;;;;;;1.15;0.60;;;14.40;88.60;;;;;;4884797;29;20111;-90
2021/10/06 13:08:54;;;;;;;1.23;0.70;;;14.70;88.60;;;;;;4898190;29;20123;-91
2021/10/06 13:11:20;;;;;;;2.00;0.65;;;15.00;88.30;;;;;;4900127;29;20036;-91
2021/10/06 13:13:46;;;;;;;1.60;0.45;;;15.20;88.70;;;;;;4917811;29;20017;-91
2021/10/06 13:16:13;;;;;;;2.50;0.70;;;15.30;88.00;;;;;;4915806;29;20035;-90
2021/10/06 13:18:39;;;;;;;3.05;0.50;;;15.30;87.50;;;;;;4890917;29;20041;-91
2021/10/06 13:21:04;;;;;;;1.33;0.45;;;15.40;87.00;;;;;;4889454;29;20111;-90
2021/10/06 13:23:33;;;;;;;3.78;0.47;;;15.60;87.00;;;;;;4901434;29;20062;-90
2021/10/06 13:26:00;;;;;;;1.55;0.90;;;15.80;86.60;;;;;;4892630;29;20029;-90
2021/10/06 13:28:25;;;;;;;1.70;0.47;;;16.10;86.90;;;;;;4878771;29;20115;-91
2021/10/06 13:30:51;;;;;;;6.07;0.70;;;16.30;87.00;;;;;;4886350;29;20108;-90
2021/10/06 13:33:17;;;;;;;1.00;0.45;;;16.40;85.80;;;;;;4895940;29;20044;-90
2021/10/06 13:35:42;;;;;;;1.85;0.60;;;16.60;85.20;;;;;;4895526;29;20036;-91
2021/10/06 13:38:08;;;;;;;2.28;0.55;;;16.60;84.10;;;;;;4896923;29;20036;-91
2021/10/06 13:40:34;;;;;;;2.92;0.50;;;16.50;82.60;;;;;;4891978;29;20029;-91
2021/10/06 13:43:01;;;;;;;3.00;0.60;;;16.40;81.80;;;;;;4879327;29;20064;-88
2021/10/06 13:45:26;;;;;;;1.83;0.35;;;16.20;80.80;;;;;;4892673;29;20036;-91
2021/10/06 13:47:55;;;;;;;4.38;0.70;;;16.10;81.20;;;;;;4895408;29;20077;-91
2021/10/06 13:50:20;;;;;;;2.63;0.47;;;16.30;81.80;;;;;;4894358;29;20086;-91
2021/10/06 13:52:46;;;;;;;3.83;0.70;;;16.50;82.30;;;;;;4885778;29;20029;-91
2021/10/06 13:55:12;;;;;;;4.03;0.60;;;16.70;82.60;;;;;;4893941;29;20116;-91
2021/10/06 13:57:38;;;;;;;2.85;0.57;;;16.90;82.10;;;;;;4896228;29;20029;-91
2021/10/06 14:00:06;;;;;;;2.65;0.90;;;17.10;81.80;;;;;;4903372;29;20033;-90
2021/10/06 14:02:32;;;;;;;5.18;0.90;;;17.00;81.00;;;;;;4916421;29;20039;-90
2021/10/06 14:04:57;;;;;;;3.22;0.70;;;16.80;80.20;;;;;;4913407;29;20036;-90
2021/10/06 14:07:23;;;;;;;2.38;0.70;;;16.50;79.80;;;;;;4908169;29;20200;-91
2021/10/06 14:09:51;;;;;;;3.42;0.70;;;16.10;79.80;;;;;;4904962;29;20073;-91
2021/10/06 14:12:17;;;;;;;1.02;0.70;;;15.70;79.90;;;;;;4879850;29;20044;-90
2021/10/06 14:14:43;;;;;;;2.40;0.60;;;15.40;80.00;;;;;;4887787;29;20164;-90
2021/10/06 14:17:09;;;;;;;1.33;0.70;;;15.20;80.50;;;;;;4882009;29;20635;-90
2021/10/06 14:19:35;;;;;;;3.08;0.50;;;15.00;81.60;;;;;;4892632;29;20049;-90
2021/10/06 14:22:00;;;;;;;1.52;0.57;;;14.80;80.90;;;;;;4894679;29;20048;-90
2021/10/06 14:24:26;;;;;;;4.30;0.68;;;14.70;81.40;;;;;;4889223;29;20036;-90
2021/10/06 14:26:52;;;;;;;4.88;0.50;;;14.60;82.00;;;;;;4887601;29;20463;-89
2021/10/06 14:29:17;;;;;;;1.55;0.50;;;14.50;82.60;;;;;;4883211;29;20071;-91
2021/10/06 14:31:43;;;;;;;2.40;0.60;;;14.50;83.00;;;;;;4880383;29;20051;-90
2021/10/06 14:34:08;;;;;;;1.73;0.50;;;14.40;82.90;;;;;;4887294;29;20463;-90
2021/10/06 14:36:36;;;;;;;0.22;0.22;;;14.30;83.00;;;;;;4885269;29;20033;-90
2021/10/06 14:39:04;;;;;;;2.35;0.70;;;14.20;83.50;;;;;;4891216;29;20115;-90
2021/10/06 14:42:14;;;;;;;1.95;0.60;;;14.10;83.80;;;;;;4907201;29;20025;-93
2021/10/06 14:44:39;;;;;;;0.63;0.45;;;14.00;84.10;;;;;;4894210;29;20096;-91
2021/10/06 14:47:05;;;;;;;2.33;0.68;;;14.00;84.40;;;;;;4889878;29;20099;-90
2021/10/06 14:49:31;;;;;;;2.08;0.68;;;13.90;84.70;;;;;;4895478;29;20040;-90
2021/10/06 14:51:57;;;;;;;2.00;0.60;;;13.90;85.10;;;;;;4895535;29;20028;-90
2021/10/06 14:54:22;;;;;;;2.97;0.70;;;13.80;85.50;;;;;;4890431;29;20040;-91
2021/10/06 14:56:48;;;;;;;1.20;0.60;;;13.80;85.70;;;;;;4886445;29;20089;-91
2021/10/06 14:59:19;;;;;;;2.08;1.10;;;13.80;85.80;;;;;;4882183;29;20036;-91
2021/10/06 15:01:46;;;;;;;1.67;1.00;;;13.80;86.00;;;;;;4884828;29;20393;-92
2021/10/06 15:04:11;;;;;;;3.65;0.50;;;13.70;85.40;;;;;;4891633;29;20564;-91
2021/10/06 15:06:37;;;;;;;2.53;0.70;;;13.50;85.30;;;;;;4895487;29;20036;-91
2021/10/06 15:09:02;;;;;;;3.50;0.60;;;13.30;85.20;;;;;;4895779;29;20088;-91
2021/10/06 15:11:28;;;;;;;2.28;0.60;;;13.10;85.40;;;;;;4893172;29;20064;-91
2021/10/06 15:13:54;;;;;;;1.02;0.55;;;12.90;85.60;;;;;;4886785;29;20033;-91
2021/10/06 15:16:19;;;;;;;2.30;0.70;;;12.60;86.10;;;;;;4890497;29;20029;-90
2021/10/06 15:18:45;;;;;;;1.30;0.50;;;12.40;86.40;;;;;;4896738;29;20029;-91
2021/10/06 15:21:11;;;;;;;0.88;0.45;;;12.20;86.60;;;;;;4888589;29;20061;-91
2021/10/06 15:23:37;;;;;;;1.98;0.50;;;12.00;87.10;;;;;;4892017;29;20021;-91
2021/10/06 15:26:03;;;;;;;2.03;0.40;;;11.90;87.30;;;;;;4877717;29;20089;-91
2021/10/06 15:28:28;;;;;;;0.52;0.40;;;11.80;87.70;;;;;;4893927;29;20047;-92
2021/10/06 15:30:54;;;;;;;2.42;0.40;;;11.70;88.10;;;;;;4891541;29;20120;-91
2021/10/06 15:33:20;;;;;;;0.70;0.45;;;11.70;88.00;;;;;;4892362;29;20029;-91
2021/10/06 15:35:47;;;;;;;0.88;0.40;;;11.60;88.20;;;;;;4896278;29;20291;-91
2021/10/06 15:38:19;;;;;;;1.13;0.47;;;11.60;88.60;;;;;;4887988;29;20711;-91
2021/10/06 15:40:45;;;;;;;0.30;0.30;;;11.60;89.10;;;;;;4880785;29;20065;-91
2021/10/06 15:43:10;;;;;;;2.05;0.60;;;11.60;89.10;;;;;;4877779;29;20033;-91
2021/10/06 15:45:37;;;;;;;0.40;0.40;;;11.60;89.10;;;;;;4883915;29;20127;-91
2021/10/06 15:48:03;;;;;;;2.40;0.55;;;11.60;89.30;;;;;;4896617;29;20060;-91
2021/10/06 15:50:29;;;;;;;0.60;0.60;;;11.50;89.40;;;;;;4896427;29;20028;-91
2021/10/06 15:52:55;;;;;;;3.50;0.52;;;11.60;89.40;;;;;;4896719;29;20135;-92
2021/10/06 15:55:21;;;;;;;1.50;0.68;;;11.60;89.60;;;;;;4885627;29;20029;-91
2021/10/06 15:57:46;;;;;;;1.45;0.70;;;11.60;89.70;;;;;;4894333;29;20029;-92
2021/10/06 16:00:13;;;;;;;0.70;0.70;;;11.50;89.70;;;;;;4889937;29;20024;-91
2021/10/06 16:02:43;;;;;;;0.60;0.60;;;11.60;89.90;;;;;;4887130;29;20566;-91
2021/10/06 16:05:11;;;;;;;2.78;1.33;;;11.50;90.00;;;;;;4893127;29;20029;-92
2021/10/06 16:07:37;;;;;;;2.33;1.48;;;11.60;90.10;;;;;;4877424;29;20037;-91
2021/10/06 16:10:04;;;;;;;4.22;2.42;;;11.60;90.10;;;;;;4883594;29;20029;-91
2021/10/06 16:12:30;;;;;;;2.75;0.90;;;11.60;90.10;;;;;;4888083;29;20085;-91
2021/10/06 16:14:56;;;;;;;1.05;0.68;;;11.70;90.10;;;;;;4887483;29;20151;-91
2021/10/06 16:17:23;;;;;;;1.83;1.00;;;11.70;90.30;;;;;;4890355;29;20025;-91
2021/10/06 16:19:48;;;;;;;0.75;0.60;;;11.60;90.20;;;;;;4900025;29;20486;-91
2021/10/06 16:22:14;;;;;;;1.65;0.80;;;11.70;90.40;;;;;;4892940;29;20044;-91
2021/10/06 16:24:45;;;;;;;1.70;0.77;;;11.70;90.40;;;;;;4900401;29;20036;-93
2021/10/06 16:27:11;;;;;;;1.40;0.70;;;11.60;90.20;;;;;;4895567;29;20029;-92
2021/10/06 16:29:37;;;;;;;2.05;0.77;;;11.50;90.30;;;;;;4897956;29;20044;-92
2021/10/06 16:32:09;;;;;;;1.90;1.00;;;11.50;90.50;;;;;;4900819;23;20504;-91
2021/10/06 16:49:59;;;;;;;2.90;1.63;;;11.20;90.50;;;;;;4901239;23;20048;-89
2021/10/06 16:52:24;;;;;;;3.00;1.10;;;11.20;90.60;;;;;;4895072;29;20040;-89
2021/10/06 16:54:50;;;;;;;2.00;0.98;;;11.20;90.70;;;;;;4894953;29;20064;-89
2021/10/06 16:57:16;;;;;;;2.03;1.00;;;11.10;90.60;;;;;;4889222;29;20025;-89
2021/10/06 16:59:41;;;;;;;0.65;0.60;;;11.10;90.80;;;;;;4877888;29;20431;-89
2021/10/06 17:02:09;;;;;;;1.15;1.05;;;11.10;90.60;;;;;;4873451;29;20181;-90
2021/10/06 17:04:35;;;;;;;4.63;1.80;;;11.00;90.60;;;;;;4874972;29;20033;-90
2021/10/06 17:07:01;;;;;;;8.27;2.92;;;11.00;90.70;;;;;;4870012;29;20107;-90
2021/10/06 17:09:26;;;;;;;11.07;4.30;;;10.90;90.70;;;;;;4873893;29;20025;-93
2021/10/06 17:11:52;;;;;;;4.95;1.73;;;10.90;90.80;;;;;;4876545;23;20606;-84
2021/10/06 17:14:18;;;;;;;5.38;1.58;;;10.90;90.90;;;;;;4873166;29;20104;-81
2021/10/06 17:16:44;;;;;;;2.28;1.20;;;10.90;90.90;;;;;;4896844;29;20029;-82
2021/10/06 17:19:10;;;;;;;3.00;1.20;;;10.90;90.80;;;;;;4865977;29;20053;-82
2021/10/06 17:21:35;;;;;;;3.42;1.65;;;10.80;90.80;;;;;;4861509;29;20040;-84
2021/10/06 17:24:02;;;;;;;3.53;1.27;;;10.80;91.00;;;;;;4858538;29;20050;-83
2021/10/06 17:26:28;;;;;;;2.88;1.23;;;10.90;91.10;;;;;;4854889;29;20029;-85
2021/10/06 17:28:53;;;;;;;1.90;1.02;;;10.90;91.20;;;;;;4863692;29;20085;-84
2021/10/06 17:31:19;;;;;;;2.85;0.90;;;11.00;91.30;;;;;;4854539;29;20783;-80
2021/10/06 17:33:45;;;;;;;2.33;0.75;;;11.00;91.20;;;;;;4852154;29;20025;-82
2021/10/06 17:36:12;;;;;;;2.58;0.60;;;11.00;91.20;;;;;;4859349;29;20033;-82
2021/10/06 17:38:38;;;;;;;1.92;0.93;;;11.10;91.20;;;;;;4853369;29;20057;-84
2021/10/06 17:41:03;;;;;;;1.55;0.70;;;11.10;91.20;;;;;;4853787;29;20045;-83
2021/10/06 17:43:29;;;;;;;1.38;0.93;;;11.00;91.20;;;;;;4852658;29;20033;-81
2021/10/06 17:45:55;;;;;;;1.90;1.00;;;11.00;91.30;;;;;;4856994;29;20014;-85
2021/10/06 17:48:21;;;;;;;1.08;0.68;;;11.10;91.30;;;;;;4859141;29;20044;-82
2021/10/06 17:50:47;;;;;;;4.13;1.02;;;11.10;91.30;;;;;;4845627;29;20030;-84
2021/10/06 17:53:12;;;;;;;3.75;0.98;;;11.10;91.30;;;;;;4859357;29;20048;-84
2021/10/06 17:55:40;;;;;;;3.40;1.00;;;11.10;91.30;;;;;;4854274;29;20038;-83
2021/10/06 17:58:06;;;;;;;2.20;0.80;;;11.10;91.40;;;;;;4860149;29;20030;-82
2021/10/06 18:00:32;;;;;;;2.22;0.88;;;11.10;91.30;;;;;;4846938;29;20121;-86
2021/10/06 18:02:58;;;;;;;3.20;1.02;;;11.00;91.30;;;;;;4853487;29;20144;-83
2021/10/06 18:05:24;;;;;;;3.53;1.02;;;11.00;91.30;;;;;;4858961;29;20038;-81
2021/10/06 18:07:51;;;;;;;1.38;0.88;;;11.00;91.30;;;;;;4852837;29;20037;-84
2021/10/06 18:10:19;;;;;;;2.25;1.13;;;11.00;91.30;;;;;;4852074;29;20038;-82
2021/10/06 18:12:45;;;;;;;3.60;1.52;;;10.90;91.30;;;;;;4869659;29;20419;-84
2021/10/06 18:15:11;;;;;;;3.35;1.45;;;10.80;91.30;;;;;;4853850;29;20138;-85
2021/10/06 18:17:37;;;;;;;4.03;2.40;;;10.80;91.40;;;;;;4856814;29;20053;-82
2021/10/06 18:20:05;;;;;;;6.10;2.33;;;10.80;91.50;;;;;;4841928;29;20041;-84
2021/10/06 18:22:31;;;;;;;2.83;2.10;;;10.80;91.60;;;;;;4842929;29;20022;-84